sensor_id;sensor_type;location;lat;lon;timestamp;pressure;altitude;pressure_sealevel;temperature;humidity
67029;BME280;53934;52.142;11.738;2022-12-07T00:00:52;100908.38;;;3.12;83.85
67029;BME280;53934;52.142;11.738;2022-12-07T00:03:18;100905.44;;;2.84;85.23
67029;BME280;53934;52.142;11.738;2022-12-07T00:05:44;100904.78;;;2.70;85.38
67029;BME280;53934;52.142;11.738;2022-12-07T00:08:11;100899.03;;;2.53;87.06
67029;BME280;53934;52.142;11.738;2022-12-07T00:10:37;100890.03;;;2.75;86.74
67029;BME280;53934;52.142;11.738;2022-12-07T00:13:04;100886.03;;;3.05;84.94
67029;BME280;53934;52.142;11.738;2022-12-07T00:15:33;100876.00;;;3.33;82.94
67029;BME280;53934;52.142;11.738;2022-12-07T00:18:00;100879.00;;;3.13;82.97
67029;BME280;53934;52.142;11.738;2022-12-07T00:20:26;100881.59;;;3.12;83.69
67029;BME280;53934;52.142;11.738;2022-12-07T00:22:52;100874.66;;;3.14;83.07
67029;BME280;53934;52.142;11.738;2022-12-07T00:25:19;100872.09;;;3.12;83.03
67029;BME280;53934;52.142;11.738;2022-12-07T00:27:45;100864.94;;;2.79;84.64
67029;BME280;53934;52.142;11.738;2022-12-07T00:30:12;100863.41;;;2.67;85.04
67029;BME280;53934;52.142;11.738;2022-12-07T00:32:40;100858.91;;;2.80;84.73
67029;BME280;53934;52.142;11.738;2022-12-07T00:35:07;100865.81;;;2.79;85.36
67029;BME280;53934;52.142;11.738;2022-12-07T00:37:34;100850.00;;;2.93;84.61
67029;BME280;53934;52.142;11.738;2022-12-07T00:40:00;100850.34;;;3.21;84.16
67029;BME280;53934;52.142;11.738;2022-12-07T00:42:27;100848.75;;;3.14;83.83
67029;BME280;53934;52.142;11.738;2022-12-07T00:44:53;100848.81;;;2.65;87.24
67029;BME280;53934;52.142;11.738;2022-12-07T00:47:19;100843.94;;;2.47;88.12
67029;BME280;53934;52.142;11.738;2022-12-07T00:49:47;100837.78;;;2.52;89.26
67029;BME280;53934;52.142;11.738;2022-12-07T00:52:14;100829.75;;;2.67;88.89
67029;BME280;53934;52.142;11.738;2022-12-07T00:54:40;100831.88;;;2.93;87.78
67029;BME280;53934;52.142;11.738;2022-12-07T00:57:07;100833.41;;;2.56;89.31
67029;BME280;53934;52.142;11.738;2022-12-07T00:59:33;100834.00;;;2.71;89.07
67029;BME280;53934;52.142;11.738;2022-12-07T01:02:00;100821.84;;;2.75;89.28
67029;BME280;53934;52.142;11.738;2022-12-07T01:04:26;100822.38;;;2.46;90.70
67029;BME280;53934;52.142;11.738;2022-12-07T01:06:54;100820.13;;;2.26;92.46
67029;BME280;53934;52.142;11.738;2022-12-07T01:09:20;100817.00;;;2.58;92.22
67029;BME280;53934;52.142;11.738;2022-12-07T01:11:47;100828.59;;;2.36;92.43
67029;BME280;53934;52.142;11.738;2022-12-07T01:14:13;100819.94;;;2.37;93.78
67029;BME280;53934;52.142;11.738;2022-12-07T01:16:40;100820.84;;;2.36;93.33
67029;BME280;53934;52.142;11.738;2022-12-07T01:19:06;100821.72;;;2.82;91.73
67029;BME280;53934;52.142;11.738;2022-12-07T01:21:34;100812.97;;;3.31;88.50
67029;BME280;53934;52.142;11.738;2022-12-07T01:24:05;100816.03;;;3.50;87.10
67029;BME280;53934;52.142;11.738;2022-12-07T01:26:32;100820.66;;;3.35;86.86
67029;BME280;53934;52.142;11.738;2022-12-07T01:28:59;100818.31;;;2.80;90.08
67029;BME280;53934;52.142;11.738;2022-12-07T01:31:26;100817.84;;;2.08;94.72
67029;BME280;53934;52.142;11.738;2022-12-07T01:33:55;100812.66;;;2.08;95.03
67029;BME280;53934;52.142;11.738;2022-12-07T01:36:24;100819.84;;;2.43;93.90
67029;BME280;53934;52.142;11.738;2022-12-07T01:38:53;100814.06;;;2.29;94.25
67029;BME280;53934;52.142;11.738;2022-12-07T01:41:24;100808.91;;;2.27;95.01
67029;BME280;53934;52.142;11.738;2022-12-07T01:44:11;100808.59;;;2.44;94.75
67029;BME280;53934;52.142;11.738;2022-12-07T01:46:39;100803.06;;;2.15;95.63
67029;BME280;53934;52.142;11.738;2022-12-07T01:49:08;100798.97;;;2.02;97.65
67029;BME280;53934;52.142;11.738;2022-12-07T01:51:37;100797.44;;;2.40;95.22
67029;BME280;53934;52.142;11.738;2022-12-07T01:54:04;100795.16;;;2.25;96.53
67029;BME280;53934;52.142;11.738;2022-12-07T01:56:33;100789.59;;;2.47;95.25
67029;BME280;53934;52.142;11.738;2022-12-07T01:59:00;100787.19;;;2.83;93.32
67029;BME280;53934;52.142;11.738;2022-12-07T02:01:27;100773.28;;;2.87;92.81
67029;BME280;53934;52.142;11.738;2022-12-07T02:03:54;100769.50;;;2.61;93.23
67029;BME280;53934;52.142;11.738;2022-12-07T02:06:24;100770.91;;;2.31;94.98
67029;BME280;53934;52.142;11.738;2022-12-07T02:08:51;100773.47;;;2.32;96.16
67029;BME280;53934;52.142;11.738;2022-12-07T02:11:18;100766.47;;;2.37;95.27
67029;BME280;53934;52.142;11.738;2022-12-07T02:13:46;100764.72;;;2.38;95.91
67029;BME280;53934;52.142;11.738;2022-12-07T02:16:21;100751.00;;;2.34;95.69
67029;BME280;53934;52.142;11.738;2022-12-07T02:19:25;100753.28;;;2.51;95.07
67029;BME280;53934;52.142;11.738;2022-12-07T02:21:58;100743.34;;;2.74;94.29
67029;BME280;53934;52.142;11.738;2022-12-07T02:24:48;100753.09;;;2.60;94.85
67029;BME280;53934;52.142;11.738;2022-12-07T02:27:40;100741.59;;;2.75;94.04
67029;BME280;53934;52.142;11.738;2022-12-07T02:30:14;100732.09;;;2.77;94.30
67029;BME280;53934;52.142;11.738;2022-12-07T02:32:44;100735.03;;;3.00;92.98
67029;BME280;53934;52.142;11.738;2022-12-07T02:35:18;100728.31;;;2.91;93.47
67029;BME280;53934;52.142;11.738;2022-12-07T02:37:53;100731.22;;;3.18;91.77
67029;BME280;53934;52.142;11.738;2022-12-07T02:40:25;100726.59;;;3.32;91.52
67029;BME280;53934;52.142;11.738;2022-12-07T02:42:55;100719.28;;;3.48;90.51
67029;BME280;53934;52.142;11.738;2022-12-07T02:45:27;100720.25;;;3.07;92.04
67029;BME280;53934;52.142;11.738;2022-12-07T02:47:58;100721.22;;;3.00;92.02
67029;BME280;53934;52.142;11.738;2022-12-07T02:50:25;100711.56;;;3.08;92.27
67029;BME280;53934;52.142;11.738;2022-12-07T02:52:52;100714.28;;;3.02;93.06
67029;BME280;53934;52.142;11.738;2022-12-07T02:55:23;100707.50;;;2.53;94.42
67029;BME280;53934;52.142;11.738;2022-12-07T02:58:01;100709.75;;;2.70;95.07
67029;BME280;53934;52.142;11.738;2022-12-07T03:00:35;100707.53;;;2.94;93.47
67029;BME280;53934;52.142;11.738;2022-12-07T03:03:07;100702.84;;;2.70;94.06
67029;BME280;53934;52.142;11.738;2022-12-07T03:05:52;100696.72;;;2.74;94.69
67029;BME280;53934;52.142;11.738;2022-12-07T03:08:30;100689.31;;;2.99;94.13
67029;BME280;53934;52.142;11.738;2022-12-07T03:11:02;100696.28;;;3.35;92.10
67029;BME280;53934;52.142;11.738;2022-12-07T03:13:33;100678.16;;;3.34;92.09
67029;BME280;53934;52.142;11.738;2022-12-07T03:16:07;100685.22;;;3.64;91.06
67029;BME280;53934;52.142;11.738;2022-12-07T03:18:38;100688.84;;;3.57;90.50
67029;BME280;53934;52.142;11.738;2022-12-07T03:21:10;100676.09;;;3.83;90.29
67029;BME280;53934;52.142;11.738;2022-12-07T03:23:40;100680.72;;;3.71;91.06
67029;BME280;53934;52.142;11.738;2022-12-07T03:26:10;100679.47;;;3.85;90.35
67029;BME280;53934;52.142;11.738;2022-12-07T03:28:42;100683.03;;;3.81;90.81
67029;BME280;53934;52.142;11.738;2022-12-07T03:31:14;100669.94;;;3.87;90.36
67029;BME280;53934;52.142;11.738;2022-12-07T03:33:48;100675.38;;;4.11;89.18
67029;BME280;53934;52.142;11.738;2022-12-07T03:36:20;100671.47;;;3.95;90.27
67029;BME280;53934;52.142;11.738;2022-12-07T03:38:51;100670.44;;;4.02;89.59
67029;BME280;53934;52.142;11.738;2022-12-07T03:41:22;100664.13;;;3.78;90.89
67029;BME280;53934;52.142;11.738;2022-12-07T03:43:50;100660.06;;;4.02;90.20
67029;BME280;53934;52.142;11.738;2022-12-07T03:46:21;100662.53;;;4.06;89.83
67029;BME280;53934;52.142;11.738;2022-12-07T03:48:58;100659.31;;;3.97;90.17
67029;BME280;53934;52.142;11.738;2022-12-07T03:51:31;100651.97;;;3.80;91.29
67029;BME280;53934;52.142;11.738;2022-12-07T03:54:05;100643.16;;;3.87;91.21
67029;BME280;53934;52.142;11.738;2022-12-07T03:56:35;100644.31;;;4.08;90.05
67029;BME280;53934;52.142;11.738;2022-12-07T03:59:01;100635.94;;;3.98;90.39
67029;BME280;53934;52.142;11.738;2022-12-07T04:01:29;100644.41;;;4.05;90.94
67029;BME280;53934;52.142;11.738;2022-12-07T04:03:56;100648.25;;;4.22;90.32
67029;BME280;53934;52.142;11.738;2022-12-07T04:06:22;100641.00;;;4.33;89.27
67029;BME280;53934;52.142;11.738;2022-12-07T04:08:48;100654.78;;;4.05;92.30
67029;BME280;53934;52.142;11.738;2022-12-07T04:11:15;100649.09;;;4.23;91.94
67029;BME280;53934;52.142;11.738;2022-12-07T04:13:41;100649.63;;;4.35;91.58
67029;BME280;53934;52.142;11.738;2022-12-07T04:16:25;100648.81;;;4.63;91.00
67029;BME280;53934;52.142;11.738;2022-12-07T04:18:53;100647.91;;;4.65;90.73
67029;BME280;53934;52.142;11.738;2022-12-07T04:21:20;100643.84;;;4.84;90.58
67029;BME280;53934;52.142;11.738;2022-12-07T04:23:46;100636.88;;;4.86;90.48
67029;BME280;53934;52.142;11.738;2022-12-07T04:26:13;100650.72;;;4.87;90.34
67029;BME280;53934;52.142;11.738;2022-12-07T04:28:39;100640.56;;;4.79;90.90
67029;BME280;53934;52.142;11.738;2022-12-07T04:31:06;100636.50;;;4.69;91.32
67029;BME280;53934;52.142;11.738;2022-12-07T04:33:32;100632.25;;;4.67;91.87
67029;BME280;53934;52.142;11.738;2022-12-07T04:36:00;100634.91;;;4.65;91.95
67029;BME280;53934;52.142;11.738;2022-12-07T04:38:26;100636.06;;;4.84;91.79
67029;BME280;53934;52.142;11.738;2022-12-07T04:40:53;100624.88;;;4.82;91.47
67029;BME280;53934;52.142;11.738;2022-12-07T04:43:20;100619.47;;;4.88;90.82
67029;BME280;53934;52.142;11.738;2022-12-07T04:45:47;100604.31;;;5.03;89.79
67029;BME280;53934;52.142;11.738;2022-12-07T04:48:14;100607.16;;;5.23;88.76
67029;BME280;53934;52.142;11.738;2022-12-07T04:50:40;100609.22;;;5.13;88.15
67029;BME280;53934;52.142;11.738;2022-12-07T04:53:08;100615.16;;;5.17;88.42
67029;BME280;53934;52.142;11.738;2022-12-07T04:55:35;100607.38;;;5.15;88.97
67029;BME280;53934;52.142;11.738;2022-12-07T04:58:02;100604.31;;;5.03;89.52
67029;BME280;53934;52.142;11.738;2022-12-07T05:00:28;100603.63;;;4.98;89.72
67029;BME280;53934;52.142;11.738;2022-12-07T05:02:55;100603.38;;;5.05;89.43
67029;BME280;53934;52.142;11.738;2022-12-07T05:05:21;100599.53;;;4.90;89.46
67029;BME280;53934;52.142;11.738;2022-12-07T05:07:47;100605.69;;;5.14;89.23
67029;BME280;53934;52.142;11.738;2022-12-07T05:10:15;100615.72;;;4.99;90.29
67029;BME280;53934;52.142;11.738;2022-12-07T05:12:42;100614.38;;;4.85;90.50
67029;BME280;53934;52.142;11.738;2022-12-07T05:15:09;100610.78;;;4.89;91.22
67029;BME280;53934;52.142;11.738;2022-12-07T05:17:36;100614.13;;;4.95;91.26
67029;BME280;53934;52.142;11.738;2022-12-07T05:20:03;100617.41;;;4.72;92.48
67029;BME280;53934;52.142;11.738;2022-12-07T05:22:29;100600.78;;;4.77;92.19
67029;BME280;53934;52.142;11.738;2022-12-07T05:24:56;100604.13;;;5.09;90.53
67029;BME280;53934;52.142;11.738;2022-12-07T05:27:24;100611.03;;;5.36;88.66
67029;BME280;53934;52.142;11.738;2022-12-07T05:29:50;100605.81;;;5.37;87.20
67029;BME280;53934;52.142;11.738;2022-12-07T05:32:17;100611.94;;;5.09;89.12
67029;BME280;53934;52.142;11.738;2022-12-07T05:34:44;100608.38;;;5.11;88.95
67029;BME280;53934;52.142;11.738;2022-12-07T05:37:11;100603.84;;;5.18;88.91
67029;BME280;53934;52.142;11.738;2022-12-07T05:39:37;100604.59;;;5.48;87.26
67029;BME280;53934;52.142;11.738;2022-12-07T05:42:06;100597.84;;;5.68;85.56
67029;BME280;53934;52.142;11.738;2022-12-07T05:44:40;100615.06;;;5.46;86.39
67029;BME280;53934;52.142;11.738;2022-12-07T05:47:06;100606.19;;;5.25;87.35
67029;BME280;53934;52.142;11.738;2022-12-07T05:49:33;100603.56;;;5.27;88.33
67029;BME280;53934;52.142;11.738;2022-12-07T05:52:00;100620.03;;;5.26;88.41
67029;BME280;53934;52.142;11.738;2022-12-07T05:54:26;100609.44;;;5.06;89.44
67029;BME280;53934;52.142;11.738;2022-12-07T05:56:53;100614.97;;;5.21;89.12
67029;BME280;53934;52.142;11.738;2022-12-07T05:59:19;100603.75;;;5.47;87.22
67029;BME280;53934;52.142;11.738;2022-12-07T06:01:49;100594.25;;;5.46;86.98
67029;BME280;53934;52.142;11.738;2022-12-07T06:04:16;100603.16;;;5.39;87.86
67029;BME280;53934;52.142;11.738;2022-12-07T06:06:43;100597.38;;;5.31;87.37
67029;BME280;53934;52.142;11.738;2022-12-07T06:09:09;100595.66;;;5.30;88.10
67029;BME280;53934;52.142;11.738;2022-12-07T06:11:36;100597.81;;;5.17;88.30
67029;BME280;53934;52.142;11.738;2022-12-07T06:14:20;100598.56;;;5.21;88.56
67029;BME280;53934;52.142;11.738;2022-12-07T06:16:49;100598.00;;;5.37;88.01
67029;BME280;53934;52.142;11.738;2022-12-07T06:19:15;100592.06;;;5.34;87.38
67029;BME280;53934;52.142;11.738;2022-12-07T06:21:42;100594.25;;;5.46;87.15
67029;BME280;53934;52.142;11.738;2022-12-07T06:24:10;100592.66;;;5.16;88.32
67029;BME280;53934;52.142;11.738;2022-12-07T06:26:37;100604.44;;;5.26;88.53
67029;BME280;53934;52.142;11.738;2022-12-07T06:29:04;100603.06;;;5.16;88.48
67029;BME280;53934;52.142;11.738;2022-12-07T06:31:30;100592.41;;;5.23;87.97
67029;BME280;53934;52.142;11.738;2022-12-07T06:33:59;100593.63;;;5.13;88.51
67029;BME280;53934;52.142;11.738;2022-12-07T06:36:26;100597.41;;;5.29;87.54
67029;BME280;53934;52.142;11.738;2022-12-07T06:38:53;100606.66;;;5.38;86.96
67029;BME280;53934;52.142;11.738;2022-12-07T06:41:20;100605.44;;;5.48;87.11
67029;BME280;53934;52.142;11.738;2022-12-07T06:43:46;100601.97;;;5.49;87.34
67029;BME280;53934;52.142;11.738;2022-12-07T06:46:13;100602.50;;;5.32;87.57
67029;BME280;53934;52.142;11.738;2022-12-07T06:48:39;100605.06;;;5.34;87.19
67029;BME280;53934;52.142;11.738;2022-12-07T06:51:07;100606.25;;;5.24;88.05
67029;BME280;53934;52.142;11.738;2022-12-07T06:53:34;100611.47;;;5.24;87.85
67029;BME280;53934;52.142;11.738;2022-12-07T06:56:01;100600.97;;;5.27;87.36
67029;BME280;53934;52.142;11.738;2022-12-07T06:58:27;100605.66;;;5.42;87.12
67029;BME280;53934;52.142;11.738;2022-12-07T07:00:54;100608.13;;;5.47;85.96
67029;BME280;53934;52.142;11.738;2022-12-07T07:03:20;100610.38;;;5.57;85.00
67029;BME280;53934;52.142;11.738;2022-12-07T07:05:47;100609.59;;;5.80;83.87
67029;BME280;53934;52.142;11.738;2022-12-07T07:08:15;100609.16;;;5.67;84.37
67029;BME280;53934;52.142;11.738;2022-12-07T07:10:41;100612.97;;;5.57;84.63
67029;BME280;53934;52.142;11.738;2022-12-07T07:13:08;100616.75;;;5.47;84.34
67029;BME280;53934;52.142;11.738;2022-12-07T07:15:34;100624.47;;;5.24;85.05
67029;BME280;53934;52.142;11.738;2022-12-07T07:18:03;100624.47;;;5.50;84.21
67029;BME280;53934;52.142;11.738;2022-12-07T07:20:29;100619.66;;;5.64;83.78
67029;BME280;53934;52.142;11.738;2022-12-07T07:22:56;100631.50;;;5.73;82.59
67029;BME280;53934;52.142;11.738;2022-12-07T07:25:24;100626.00;;;5.56;83.37
67029;BME280;53934;52.142;11.738;2022-12-07T07:27:50;100634.88;;;5.50;83.38
67029;BME280;53934;52.142;11.738;2022-12-07T07:30:17;100622.31;;;5.63;83.06
67029;BME280;53934;52.142;11.738;2022-12-07T07:32:43;100634.53;;;5.61;82.96
67029;BME280;53934;52.142;11.738;2022-12-07T07:35:10;100639.47;;;5.68;82.71
67029;BME280;53934;52.142;11.738;2022-12-07T07:37:36;100627.13;;;5.73;81.97
67029;BME280;53934;52.142;11.738;2022-12-07T07:40:03;100636.66;;;5.74;81.92
67029;BME280;53934;52.142;11.738;2022-12-07T07:42:31;100641.63;;;5.80;82.14
67029;BME280;53934;52.142;11.738;2022-12-07T07:44:58;100634.09;;;5.73;82.37
67029;BME280;53934;52.142;11.738;2022-12-07T07:47:24;100639.88;;;5.81;81.28
67029;BME280;53934;52.142;11.738;2022-12-07T07:49:51;100642.16;;;5.92;81.70
67029;BME280;53934;52.142;11.738;2022-12-07T07:52:17;100639.72;;;5.61;83.23
67029;BME280;53934;52.142;11.738;2022-12-07T07:54:43;100638.88;;;5.85;82.22
67029;BME280;53934;52.142;11.738;2022-12-07T07:57:10;100638.28;;;5.77;81.71
67029;BME280;53934;52.142;11.738;2022-12-07T07:59:38;100641.50;;;5.86;81.37
67029;BME280;53934;52.142;11.738;2022-12-07T08:02:04;100649.03;;;5.68;82.23
67029;BME280;53934;52.142;11.738;2022-12-07T08:04:31;100648.06;;;5.44;82.55
67029;BME280;53934;52.142;11.738;2022-12-07T08:06:57;100650.28;;;5.56;82.37
67029;BME280;53934;52.142;11.738;2022-12-07T08:09:23;100636.88;;;5.95;80.83
67029;BME280;53934;52.142;11.738;2022-12-07T08:11:50;100646.06;;;5.78;81.22
67029;BME280;53934;52.142;11.738;2022-12-07T08:14:16;100646.31;;;6.22;79.95
67029;BME280;53934;52.142;11.738;2022-12-07T08:16:44;100650.63;;;6.23;79.21
67029;BME280;53934;52.142;11.738;2022-12-07T08:19:10;100645.84;;;6.11;79.52
67029;BME280;53934;52.142;11.738;2022-12-07T08:21:37;100639.81;;;6.33;78.83
67029;BME280;53934;52.142;11.738;2022-12-07T08:24:04;100640.59;;;6.12;79.24
67029;BME280;53934;52.142;11.738;2022-12-07T08:26:30;100645.25;;;6.03;80.32
67029;BME280;53934;52.142;11.738;2022-12-07T08:28:57;100646.84;;;6.07;79.90
67029;BME280;53934;52.142;11.738;2022-12-07T08:31:23;100642.63;;;6.03;80.51
67029;BME280;53934;52.142;11.738;2022-12-07T08:33:51;100637.53;;;6.00;80.59
67029;BME280;53934;52.142;11.738;2022-12-07T08:36:18;100644.94;;;5.87;81.12
67029;BME280;53934;52.142;11.738;2022-12-07T08:38:44;100648.56;;;6.08;80.52
67029;BME280;53934;52.142;11.738;2022-12-07T08:41:11;100645.56;;;6.18;80.79
67029;BME280;53934;52.142;11.738;2022-12-07T08:43:37;100645.31;;;6.26;80.67
67029;BME280;53934;52.142;11.738;2022-12-07T08:46:08;100642.47;;;6.32;80.52
67029;BME280;53934;52.142;11.738;2022-12-07T08:48:39;100643.50;;;6.28;80.56
67029;BME280;53934;52.142;11.738;2022-12-07T08:51:08;100637.41;;;6.52;79.92
67029;BME280;53934;52.142;11.738;2022-12-07T08:53:37;100647.06;;;6.25;81.42
67029;BME280;53934;52.142;11.738;2022-12-07T08:56:05;100645.19;;;6.29;81.06
67029;BME280;53934;52.142;11.738;2022-12-07T08:58:32;100648.91;;;6.47;81.18
67029;BME280;53934;52.142;11.738;2022-12-07T09:00:59;100658.28;;;6.51;79.61
67029;BME280;53934;52.142;11.738;2022-12-07T09:03:26;100650.00;;;6.40;80.75
67029;BME280;53934;52.142;11.738;2022-12-07T09:05:52;100650.59;;;6.24;81.11
67029;BME280;53934;52.142;11.738;2022-12-07T09:08:21;100656.94;;;6.16;81.79
67029;BME280;53934;52.142;11.738;2022-12-07T09:10:48;100660.50;;;6.38;80.41
67029;BME280;53934;52.142;11.738;2022-12-07T09:13:15;100662.03;;;6.19;81.50
67029;BME280;53934;52.142;11.738;2022-12-07T09:15:41;100658.66;;;6.17;81.43
67029;BME280;53934;52.142;11.738;2022-12-07T09:18:07;100668.19;;;5.92;81.99
67029;BME280;53934;52.142;11.738;2022-12-07T09:20:34;100673.63;;;6.10;81.80
67029;BME280;53934;52.142;11.738;2022-12-07T09:23:00;100670.53;;;5.99;82.37
67029;BME280;53934;52.142;11.738;2022-12-07T09:25:28;100673.47;;;5.90;83.00
67029;BME280;53934;52.142;11.738;2022-12-07T09:27:55;100669.16;;;6.14;82.11
67029;BME280;53934;52.142;11.738;2022-12-07T09:30:22;100683.16;;;6.10;81.99
67029;BME280;53934;52.142;11.738;2022-12-07T09:32:49;100672.03;;;6.31;81.54
67029;BME280;53934;52.142;11.738;2022-12-07T09:35:15;100662.16;;;6.16;81.35
67029;BME280;53934;52.142;11.738;2022-12-07T09:37:42;100667.75;;;6.53;80.80
67029;BME280;53934;52.142;11.738;2022-12-07T09:40:09;100671.97;;;6.57;79.48
67029;BME280;53934;52.142;11.738;2022-12-07T09:42:38;100660.91;;;6.26;80.17
67029;BME280;53934;52.142;11.738;2022-12-07T09:45:06;100665.06;;;6.31;79.97
67029;BME280;53934;52.142;11.738;2022-12-07T09:47:37;100666.38;;;6.43;79.83
67029;BME280;53934;52.142;11.738;2022-12-07T09:50:06;100666.63;;;6.12;80.86
67029;BME280;53934;52.142;11.738;2022-12-07T09:52:33;100661.94;;;5.97;81.47
67029;BME280;53934;52.142;11.738;2022-12-07T09:55:01;100662.03;;;5.94;82.10
67029;BME280;53934;52.142;11.738;2022-12-07T09:57:29;100661.03;;;6.23;81.35
67029;BME280;53934;52.142;11.738;2022-12-07T10:00:00;100667.50;;;6.36;81.36
67029;BME280;53934;52.142;11.738;2022-12-07T10:02:35;100668.22;;;6.16;81.67
67029;BME280;53934;52.142;11.738;2022-12-07T10:05:05;100667.34;;;5.91;82.32
67029;BME280;53934;52.142;11.738;2022-12-07T10:07:32;100673.09;;;6.01;82.67
67029;BME280;53934;52.142;11.738;2022-12-07T10:09:58;100660.06;;;6.25;81.97
67029;BME280;53934;52.142;11.738;2022-12-07T10:12:24;100657.72;;;6.18;82.06
67029;BME280;53934;52.142;11.738;2022-12-07T10:14:59;100665.91;;;6.07;82.72
67029;BME280;53934;52.142;11.738;2022-12-07T10:17:33;100655.47;;;6.09;82.84
67029;BME280;53934;52.142;11.738;2022-12-07T10:20:22;100651.81;;;5.88;83.04
67029;BME280;53934;52.142;11.738;2022-12-07T10:22:57;100666.53;;;6.14;82.99
67029;BME280;53934;52.142;11.738;2022-12-07T10:25:26;100660.56;;;6.12;82.87
67029;BME280;53934;52.142;11.738;2022-12-07T10:28:01;100656.59;;;6.25;82.17
67029;BME280;53934;52.142;11.738;2022-12-07T10:30:31;100664.38;;;6.02;83.34
67029;BME280;53934;52.142;11.738;2022-12-07T10:32:58;100663.13;;;6.13;81.90
67029;BME280;53934;52.142;11.738;2022-12-07T10:35:26;100661.84;;;6.48;81.21
67029;BME280;53934;52.142;11.738;2022-12-07T10:37:54;100662.56;;;6.28;80.66
67029;BME280;53934;52.142;11.738;2022-12-07T10:40:28;100652.97;;;6.30;80.80
67029;BME280;53934;52.142;11.738;2022-12-07T10:43:07;100653.59;;;6.60;80.81
67029;BME280;53934;52.142;11.738;2022-12-07T10:45:55;100644.56;;;6.69;79.04
67029;BME280;53934;52.142;11.738;2022-12-07T10:48:33;100646.06;;;6.53;79.31
67029;BME280;53934;52.142;11.738;2022-12-07T10:51:07;100644.78;;;6.64;78.35
67029;BME280;53934;52.142;11.738;2022-12-07T10:53:43;100650.44;;;6.75;79.40
67029;BME280;53934;52.142;11.738;2022-12-07T10:56:47;100643.25;;;7.04;78.16
67029;BME280;53934;52.142;11.738;2022-12-07T10:59:29;100635.31;;;7.28;76.57
67029;BME280;53934;52.142;11.738;2022-12-07T11:02:19;100644.66;;;7.34;76.19
67029;BME280;53934;52.142;11.738;2022-12-07T11:04:59;100643.84;;;7.32;77.39
67029;BME280;53934;52.142;11.738;2022-12-07T11:07:38;100641.44;;;7.49;74.05
67029;BME280;53934;52.142;11.738;2022-12-07T11:10:13;100641.91;;;7.59;75.12
67029;BME280;53934;52.142;11.738;2022-12-07T11:12:50;100646.28;;;7.58;74.92
67029;BME280;53934;52.142;11.738;2022-12-07T11:15:22;100632.38;;;7.58;75.26
67029;BME280;53934;52.142;11.738;2022-12-07T11:17:57;100628.59;;;7.45;75.98
67029;BME280;53934;52.142;11.738;2022-12-07T11:20:39;100635.47;;;7.67;74.09
67029;BME280;53934;52.142;11.738;2022-12-07T11:23:16;100624.09;;;7.26;74.59
67029;BME280;53934;52.142;11.738;2022-12-07T11:25:51;100627.19;;;6.93;76.41
67029;BME280;53934;52.142;11.738;2022-12-07T11:28:26;100634.97;;;6.71;77.44
67029;BME280;53934;52.142;11.738;2022-12-07T11:31:08;100625.47;;;6.92;76.01
67029;BME280;53934;52.142;11.738;2022-12-07T11:33:43;100627.31;;;7.33;75.38
67029;BME280;53934;52.142;11.738;2022-12-07T11:36:23;100631.94;;;7.05;76.53
67029;BME280;53934;52.142;11.738;2022-12-07T11:38:57;100616.09;;;7.31;75.57
67029;BME280;53934;52.142;11.738;2022-12-07T11:41:29;100624.66;;;7.34;74.95
67029;BME280;53934;52.142;11.738;2022-12-07T11:44:05;100628.59;;;7.45;73.96
67029;BME280;53934;52.142;11.738;2022-12-07T11:46:43;100624.34;;;7.42;74.71
67029;BME280;53934;52.142;11.738;2022-12-07T11:49:19;100613.28;;;7.35;73.69
67029;BME280;53934;52.142;11.738;2022-12-07T11:51:49;100623.59;;;7.17;74.67
67029;BME280;53934;52.142;11.738;2022-12-07T11:54:20;100620.78;;;7.23;74.46
67029;BME280;53934;52.142;11.738;2022-12-07T11:56:50;100618.91;;;7.05;75.29
67029;BME280;53934;52.142;11.738;2022-12-07T11:59:23;100618.16;;;7.45;75.06
67029;BME280;53934;52.142;11.738;2022-12-07T12:01:54;100619.50;;;7.11;74.58
67029;BME280;53934;52.142;11.738;2022-12-07T12:04:34;100619.38;;;6.93;75.10
67029;BME280;53934;52.142;11.738;2022-12-07T12:07:07;100616.72;;;6.71;75.62
67029;BME280;53934;52.142;11.738;2022-12-07T12:09:35;100623.22;;;6.36;76.22
67029;BME280;53934;52.142;11.738;2022-12-07T12:12:21;100619.16;;;6.52;75.59
67029;BME280;53934;52.142;11.738;2022-12-07T12:15:02;100616.69;;;6.49;75.79
67029;BME280;53934;52.142;11.738;2022-12-07T12:17:50;100613.22;;;6.49;76.09
67029;BME280;53934;52.142;11.738;2022-12-07T12:20:24;100609.25;;;6.62;75.52
67029;BME280;53934;52.142;11.738;2022-12-07T12:22:55;100620.59;;;7.06;74.59
67029;BME280;53934;52.142;11.738;2022-12-07T12:25:26;100614.28;;;7.11;73.88
67029;BME280;53934;52.142;11.738;2022-12-07T12:27:55;100611.25;;;7.22;75.08
67029;BME280;53934;52.142;11.738;2022-12-07T12:30:29;100610.81;;;7.74;72.84
67029;BME280;53934;52.142;11.738;2022-12-07T12:33:03;100602.78;;;7.59;71.52
67029;BME280;53934;52.142;11.738;2022-12-07T12:35:33;100596.00;;;7.33;72.25
67029;BME280;53934;52.142;11.738;2022-12-07T12:38:25;100612.88;;;7.03;72.68
67029;BME280;53934;52.142;11.738;2022-12-07T12:40:53;100602.34;;;7.27;72.22
67029;BME280;53934;52.142;11.738;2022-12-07T12:43:42;100600.09;;;7.80;71.35
67029;BME280;53934;52.142;11.738;2022-12-07T12:46:36;100594.94;;;7.99;70.61
67029;BME280;53934;52.142;11.738;2022-12-07T12:49:30;100582.78;;;7.79;70.84
67029;BME280;53934;52.142;11.738;2022-12-07T12:52:01;100591.28;;;7.43;71.66
67029;BME280;53934;52.142;11.738;2022-12-07T12:54:58;100583.19;;;7.49;71.69
67029;BME280;53934;52.142;11.738;2022-12-07T12:57:27;100584.72;;;7.74;70.46
67029;BME280;53934;52.142;11.738;2022-12-07T12:59:57;100582.34;;;8.09;69.08
67029;BME280;53934;52.142;11.738;2022-12-07T13:02:26;100589.59;;;8.02;69.84
67029;BME280;53934;52.142;11.738;2022-12-07T13:04:55;100583.78;;;7.55;70.27